EDW35Y MDPC-LSZH
Flight info
| Callsign | EDW35Y |
|---|---|
| Flight time | N/A |
| Altitude | 35000 |
| Route | CHUMA2W CHUMA DCT OPAUL/M083F350 DCT FIVZE/M083F370 DCT 32N050W 3630N04000W 41N030W 44N020W/M083F390 DCT PASAS DCT SIVIR DCT RIVAK/N0483F390 DCT KOLEK/N0479F400 DCT AKEMO DCT GIGOT DCT OBATO DCT RESMI/N0473F410 DCT TEPRI DCT POGZI DCT GELTA DCT MANAG DCT PEVIT DCT BLM |
| Aircraft | A343/H-SDE2E3FGHIJ4J5M1RWXY/LB1D1 |
Departure
| Time | 2026-05-03 23:00 |
|---|---|
| Airport | Punta Cana International Airport (MDPC) |
Arrival
| Time | N/A |
|---|---|
| Airport | Zürich Airport (LSZH) |
| Time | Latitude | Longitude | Altitude | Speed | Heading |
|---|---|---|---|---|---|
| 2026-05-03 22:24 | 18.56431 | -68.36914 | 49 ft | 0 kts | 85° |
| 2026-05-03 22:48 | 18.56430 | -68.36930 | 47 ft | 4 kts | 84° |
| 2026-05-03 22:48 | 18.56428 | -68.36953 | 47 ft | 3 kts | 84° |
| 2026-05-03 22:49 | 18.56423 | -68.36981 | 48 ft | 4 kts | 68° |
| 2026-05-03 22:49 | 18.56410 | -68.37003 | 47 ft | 4 kts | 31° |
| 2026-05-03 22:49 | 18.56388 | -68.37007 | 47 ft | 4 kts | 354° |
| 2026-05-03 22:49 | 18.56361 | -68.37005 | 49 ft | 2 kts | 354° |
| 2026-05-03 22:50 | 18.56359 | -68.37005 | 49 ft | 0 kts | 354° |
| 2026-05-03 22:53 | 18.56360 | -68.37005 | 54 ft | 0 kts | 354° |
| 2026-05-03 22:53 | 18.56369 | -68.37006 | 51 ft | 5 kts | 354° |
| 2026-05-03 22:54 | 18.56410 | -68.37010 | 52 ft | 6 kts | 354° |
| 2026-05-03 22:54 | 18.56453 | -68.37015 | 50 ft | 6 kts | 353° |
| 2026-05-03 22:54 | 18.56486 | -68.37035 | 47 ft | 5 kts | 311° |
| 2026-05-03 22:54 | 18.56495 | -68.37088 | 52 ft | 11 kts | 267° |
| 2026-05-03 22:55 | 18.56486 | -68.37196 | 54 ft | 18 kts | 265° |
| 2026-05-03 22:55 | 18.56474 | -68.37335 | 49 ft | 19 kts | 264° |
| 2026-05-03 22:55 | 18.56462 | -68.37472 | 51 ft | 19 kts | 265° |
| 2026-05-03 22:55 | 18.56450 | -68.37601 | 54 ft | 15 kts | 265° |
| 2026-05-03 22:56 | 18.56443 | -68.37699 | 53 ft | 12 kts | 268° |
| 2026-05-03 22:56 | 18.56474 | -68.37774 | 50 ft | 11 kts | 321° |
| 2026-05-03 22:56 | 18.56544 | -68.37787 | 54 ft | 10 kts | 356° |
| 2026-05-03 22:56 | 18.56615 | -68.37793 | 49 ft | 11 kts | 355° |
| 2026-05-03 22:57 | 18.56682 | -68.37823 | 49 ft | 10 kts | 313° |
| 2026-05-03 22:57 | 18.56722 | -68.37898 | 48 ft | 13 kts | 296° |
| 2026-05-03 22:57 | 18.56758 | -68.37985 | 48 ft | 13 kts | 294° |
| 2026-05-03 22:57 | 18.56795 | -68.38073 | 49 ft | 13 kts | 294° |
| 2026-05-03 22:58 | 18.56833 | -68.38161 | 47 ft | 13 kts | 295° |
| 2026-05-03 22:58 | 18.56880 | -68.38238 | 53 ft | 11 kts | 318° |
| 2026-05-03 22:58 | 18.56945 | -68.38267 | 53 ft | 10 kts | 345° |
| 2026-05-03 22:58 | 18.57007 | -68.38279 | 53 ft | 8 kts | 5° |
| 2026-05-03 22:59 | 18.57042 | -68.38248 | 53 ft | 6 kts | 60° |
| 2026-05-03 22:59 | 18.57052 | -68.38217 | 54 ft | 3 kts | 74° |
| 2026-05-03 22:59 | 18.57069 | -68.38153 | 50 ft | 26 kts | 74° |
| 2026-05-03 22:59 | 18.57171 | -68.37786 | 51 ft | 77 kts | 73° |
| 2026-05-03 23:00 | 18.57362 | -68.37093 | 49 ft | 119 kts | 73° |
| 2026-05-03 23:00 | 18.57627 | -68.36132 | 54 ft | 152 kts | 73° |
| 2026-05-03 23:00 | 18.57926 | -68.35053 | 434 ft | 152 kts | 73° |
| 2026-05-03 23:00 | 18.58230 | -68.33957 | 718 ft | 163 kts | 74° |
| 2026-05-03 23:01 | 18.58552 | -68.32804 | 1133 ft | 164 kts | 75° |
| 2026-05-03 23:01 | 18.58937 | -68.31672 | 1591 ft | 165 kts | 63° |
| 2026-05-03 23:01 | 18.59774 | -68.30767 | 1798 ft | 187 kts | 28° |
| 2026-05-03 23:01 | 18.61119 | -68.30582 | 1949 ft | 206 kts | 356° |
| 2026-05-03 23:02 | 18.62623 | -68.30792 | 2044 ft | 229 kts | 352° |
| 2026-05-03 23:02 | 18.64267 | -68.31067 | 2263 ft | 248 kts | 352° |
| 2026-05-03 23:02 | 18.66034 | -68.31344 | 2542 ft | 262 kts | 353° |
| 2026-05-03 23:02 | 18.67865 | -68.31618 | 3015 ft | 269 kts | 353° |
| 2026-05-03 23:03 | 18.69744 | -68.31890 | 3482 ft | 275 kts | 354° |
| 2026-05-03 23:03 | 18.71634 | -68.32162 | 3985 ft | 279 kts | 354° |
| 2026-05-03 23:03 | 18.73566 | -68.32437 | 4502 ft | 282 kts | 355° |
| 2026-05-03 23:03 | 18.75521 | -68.32710 | 5021 ft | 285 kts | 355° |
| 2026-05-03 23:04 | 18.77491 | -68.32985 | 5568 ft | 285 kts | 355° |
| 2026-05-03 23:04 | 18.79462 | -68.33261 | 5955 ft | 286 kts | 354° |
| 2026-05-03 23:04 | 18.81440 | -68.33541 | 6390 ft | 287 kts | 354° |
| 2026-05-03 23:04 | 18.83416 | -68.33816 | 6945 ft | 285 kts | 353° |
| 2026-05-03 23:05 | 18.85389 | -68.34090 | 7438 ft | 287 kts | 353° |
| 2026-05-03 23:05 | 18.87378 | -68.34366 | 7897 ft | 289 kts | 353° |
| 2026-05-03 23:05 | 18.89384 | -68.34646 | 8364 ft | 291 kts | 353° |
| 2026-05-03 23:05 | 18.91402 | -68.34927 | 8833 ft | 293 kts | 353° |
| 2026-05-03 23:06 | 18.93431 | -68.35211 | 9345 ft | 295 kts | 353° |
| 2026-05-03 23:06 | 18.95471 | -68.35496 | 9844 ft | 297 kts | 353° |
| 2026-05-03 23:06 | 18.97531 | -68.35784 | 10231 ft | 302 kts | 353° |
| 2026-05-03 23:06 | 18.99659 | -68.36082 | 10422 ft | 315 kts | 352° |
| 2026-05-03 23:07 | 19.01844 | -68.36388 | 10581 ft | 327 kts | 352° |
| 2026-05-03 23:07 | 19.04141 | -68.36710 | 10754 ft | 339 kts | 352° |
| 2026-05-03 23:07 | 19.06516 | -68.37042 | 10909 ft | 349 kts | 352° |
| 2026-05-03 23:07 | 19.08962 | -68.37385 | 11070 ft | 360 kts | 352° |
| 2026-05-03 23:08 | 19.11485 | -68.37738 | 11217 ft | 369 kts | 352° |
| 2026-05-03 23:08 | 19.14064 | -68.38085 | 11353 ft | 378 kts | 354° |
| 2026-05-03 23:08 | 19.16711 | -68.38151 | 11563 ft | 384 kts | 4° |
| 2026-05-03 23:08 | 19.19352 | -68.37671 | 11858 ft | 387 kts | 15° |
| 2026-05-03 23:09 | 19.21859 | -68.36611 | 12158 ft | 390 kts | 28° |